San Leandro, CA (94577)

1:01 AM PDT on July 29, 2016 (GMT -0700)
Estudillo Estates | | Change Station

Elev 79 ft 37.73 °N, 122.15 °W | Updated 38 seconds ago

Partly Cloudy
Partly Cloudy
58.5 °F
Feels Like 58.5 °F
N
0.0
Wind Variable Wind from SE
Gusts 0.0 mph

Today
High -- | Low -- °F
--% Chance of Precip.
Yesterday
High -- | Low -- °F
Precip. -- in
Pressure 29.87 in
Visibility 10.0 miles
Clouds Few 700 ft
Few 20000 ft
Dew Point 54 °F
Humidity 86%
Rainfall 0.00 in
Snow Depth Not available.
6:10 AM 8:19 PM
Waning Crescent, 24% visible
METAR KOAK 290753Z 31005KT 10SM FEW007 FEW200 14/13 A2987 RMK AO2 SLP113 T01440128 402390133
Pressure 29.87 in
Visibility 10.0 miles
Clouds Few 700 ft
Few 20000 ft
Dew Point 54 °F
Humidity 86%
Rainfall 0.00 in
Snow Depth Not available.
6:10 AM 8:19 PM
Waning Crescent, 24% visible
METAR KOAK 290753Z 31005KT 10SM FEW007 FEW200 14/13 A2987 RMK AO2 SLP113 T01440128 402390133

10-Day Weather Forecast

Almanac

Astronomy

Jul. 29, 2016 Rise Set
Actual Time
Civil Twilight
Nautical Twilight
Astronomical Twilight
Moon
Length of Visible Light
Length of Day
Tomorrow will be .
, % of the Moon is Illuminated

Today's Extremes

State Highs State Lows

Community

WunderPhotos

Upload Photos

1,928,300 photos uploaded!

WunderBlog® & News

Nearby

Air Quality

  Air Quality AQ Index Pollutant
Not available.

Snow Depth

Station Depth Elevation

Earthquake Activity

City Distance Mag. Time & Date
Minimum magnitude displayed is 2.5.

Coastal Water Temperatures

Place Temperature

Stations

Nearby Weather Stations

Station Location Temp. Windchill Dew Point Humidity Wind Precip. Elev Updated Type
                   

Watches & Warnings

There are currently no watches in effect.